Time;durP1;ratioP1;P1;durP2;ratioP2;P2;SDS_P1;SDS_P2;PMS_P1;PMS_P2;Temp;Humidity;BMP_temperature;BMP_pressure;BME280_temperature;BME280_humidity;BME280_pressure;Samples;Min_cycle;Max_cycle;Signal;HPM_P1;HPM_P2
2021/04/22 00:00:21;;;;;;;6.77;4.97;;;;;;;6.05;82.69;95812.20;1740137;82;21165;-62
2021/04/22 00:02:52;;;;;;;5.90;4.40;;;;;;;6.04;83.11;95816.98;1719727;82;21561;-62
2021/04/22 00:05:39;;;;;;;7.40;5.40;;;;;;;6.12;82.77;95813.06;1740015;82;21296;-62
2021/04/22 00:08:12;;;;;;;8.57;6.00;;;;;;;6.23;82.37;95814.42;1740121;82;21256;-62
2021/04/22 00:10:47;;;;;;;7.33;5.45;;;;;;;6.33;81.86;95815.31;1719740;82;21564;-62
2021/04/22 00:13:20;;;;;;;9.10;5.87;;;;;;;6.39;81.76;95811.38;1740009;82;21141;-62
2021/04/22 00:15:50;;;;;;;6.73;5.20;;;;;;;6.41;81.35;95813.12;1740158;82;21571;-62
2021/04/22 00:18:18;;;;;;;7.83;5.67;;;;;;;6.49;81.15;95810.51;1739672;82;21283;-62
2021/04/22 00:20:47;;;;;;;9.03;5.70;;;;;;;6.43;80.79;95811.83;1740069;82;21268;-62
2021/04/22 00:23:17;;;;;;;8.00;5.80;;;;;;;6.37;81.22;95818.36;1740227;82;21166;-62
2021/04/22 00:25:46;;;;;;;6.87;5.07;;;;;;;6.42;80.82;95807.44;1740012;82;21139;-62
2021/04/22 00:28:15;;;;;;;6.30;5.00;;;;;;;6.36;80.45;95807.45;1740033;82;21746;-63
2021/04/22 00:30:44;;;;;;;7.73;5.43;;;;;;;6.27;80.85;95808.30;1740376;82;21275;-62
2021/04/22 00:33:19;;;;;;;9.03;5.17;;;;;;;6.32;80.76;95806.55;1740092;82;21272;-62
2021/04/22 00:35:47;;;;;;;6.77;4.17;;;;;;;6.31;81.42;95801.33;1740231;81;21189;-62
2021/04/22 00:38:16;;;;;;;7.53;4.80;;;;;;;6.22;81.44;95806.09;1740200;81;21122;-62
2021/04/22 00:40:47;;;;;;;5.57;4.30;;;;;;;6.09;81.33;95806.95;1739981;81;21141;-62
2021/04/22 00:43:18;;;;;;;6.20;4.20;;;;;;;6.04;81.56;95799.95;1740139;82;21719;-62
2021/04/22 00:45:47;;;;;;;5.73;3.93;;;;;;;6.00;81.85;95803.45;1740056;82;21284;-62
2021/04/22 00:48:23;;;;;;;9.23;5.10;;;;;;;5.93;81.86;95808.20;1740191;82;21141;-62
2021/04/22 00:50:54;;;;;;;7.60;5.03;;;;;;;5.90;81.85;95795.11;1739796;82;21150;-62
2021/04/22 00:53:23;;;;;;;6.87;4.77;;;;;;;5.93;81.48;95792.92;1740265;82;21718;-62
2021/04/22 00:55:55;;;;;;;7.60;4.23;;;;;;;5.94;81.87;95785.53;1740270;82;21714;-62
2021/04/22 00:58:23;;;;;;;6.10;4.17;;;;;;;5.90;81.91;95790.30;1740287;82;21233;-64
2021/04/22 01:00:55;;;;;;;6.03;4.53;;;;;;;5.80;81.88;95798.12;1740250;82;21117;-62
2021/04/22 01:03:25;;;;;;;7.73;5.37;;;;;;;5.76;81.70;95795.05;1740472;82;21157;-62
2021/04/22 01:05:57;;;;;;;8.17;5.23;;;;;;;5.74;82.54;95793.29;1740488;82;21118;-62
2021/04/22 01:08:25;;;;;;;9.00;5.40;;;;;;;5.69;83.18;95794.58;1740333;82;21683;-62
2021/04/22 01:10:54;;;;;;;9.60;6.33;;;;;;;5.62;83.14;95795.02;1740398;82;21149;-62
2021/04/22 01:13:22;;;;;;;11.13;6.73;;;;;;;5.59;82.64;95792.80;1740184;82;21577;-62
2021/04/22 01:15:50;;;;;;;9.10;6.13;;;;;;;5.56;83.37;95794.11;1740226;82;21141;-62
2021/04/22 01:18:18;;;;;;;10.40;7.07;;;;;;;5.52;83.40;95801.08;1740186;82;21138;-62
2021/04/22 01:20:49;;;;;;;9.30;6.33;;;;;;;5.49;83.37;95804.09;1740053;82;21312;-62
2021/04/22 01:23:17;;;;;;;11.63;7.83;;;;;;;5.48;83.21;95799.75;1740166;82;21740;-62
2021/04/22 01:25:50;;;;;;;12.87;7.63;;;;;;;5.46;83.52;95799.73;1740576;82;21118;-62
2021/04/22 01:28:20;;;;;;;11.37;7.40;;;;;;;5.49;84.10;95808.03;1739923;82;21142;-62
2021/04/22 01:30:55;;;;;;;9.83;6.40;;;;;;;5.47;84.15;95803.21;1740214;82;21256;-62
2021/04/22 01:33:27;;;;;;;10.07;7.53;;;;;;;5.48;84.04;95796.69;1740216;82;21248;-62
2021/04/22 01:35:58;;;;;;;10.87;7.43;;;;;;;5.47;83.54;95795.36;1741111;81;21284;-62
2021/04/22 01:38:27;;;;;;;10.93;6.97;;;;;;;5.52;83.68;95793.23;1748368;82;21137;-62
2021/04/22 01:40:55;;;;;;;9.73;7.20;;;;;;;5.57;83.84;95795.88;1748333;81;21595;-62
2021/04/22 01:43:23;;;;;;;10.67;7.77;;;;;;;5.59;83.55;95792.39;1748343;82;21600;-62
2021/04/22 01:45:50;;;;;;;10.53;6.97;;;;;;;5.61;83.50;95790.62;1748538;82;21149;-62
2021/04/22 01:48:18;;;;;;;9.87;7.40;;;;;;;5.59;83.48;95791.08;1748319;82;21142;-62
2021/04/22 01:50:46;;;;;;;8.43;6.77;;;;;;;5.58;83.42;95794.55;1748416;82;21129;-62
2021/04/22 01:53:14;;;;;;;10.10;7.10;;;;;;;5.57;83.34;95797.18;1748533;82;21564;-62
2021/04/22 01:55:49;;;;;;;10.30;6.93;;;;;;;5.54;83.46;95795.39;1749059;82;21280;-62
2021/04/22 01:58:21;;;;;;;15.03;8.33;;;;;;;5.49;83.22;95798.87;1748555;82;21117;-62
2021/04/22 02:00:56;;;;;;;12.43;7.67;;;;;;;5.47;83.39;95799.28;1748502;82;21552;-62
2021/04/22 02:03:27;;;;;;;10.97;7.57;;;;;;;5.52;83.52;95798.88;1748159;82;21390;-62
2021/04/22 02:05:56;;;;;;;12.37;7.17;;;;;;;5.53;83.47;95798.02;1748326;82;21090;-62
2021/04/22 02:08:23;;;;;;;12.40;7.77;;;;;;;5.46;83.40;95793.63;1748327;82;21149;-62
2021/04/22 02:10:52;;;;;;;9.67;7.40;;;;;;;5.41;83.35;95795.78;1748300;82;21134;-62
2021/04/22 02:13:22;;;;;;;9.63;6.73;;;;;;;5.38;83.30;95796.20;1748496;81;21148;-62
2021/04/22 02:15:50;;;;;;;9.43;7.07;;;;;;;5.21;83.47;95794.37;1719805;82;21110;-62
2021/04/22 02:18:18;;;;;;;10.53;7.13;;;;;;;5.13;83.51;95790.84;1748287;82;21125;-62
2021/04/22 02:20:48;;;;;;;11.70;7.87;;;;;;;5.07;83.72;95790.83;1748729;82;21308;-62
2021/04/22 02:23:19;;;;;;;8.63;5.87;;;;;;;5.01;83.71;95787.28;1748513;82;21164;-62
2021/04/22 02:25:48;;;;;;;12.37;7.40;;;;;;;4.97;83.65;95795.55;1748282;82;21113;-62
2021/04/22 02:28:16;;;;;;;14.10;7.63;;;;;;;4.88;84.07;95790.26;1748307;82;21145;-62
2021/04/22 02:30:46;;;;;;;9.77;6.37;;;;;;;4.89;84.11;95785.05;1748391;82;21173;-62
2021/04/22 02:33:18;;;;;;;11.17;8.00;;;;;;;4.85;84.28;95790.25;1748445;82;21544;-62
2021/04/22 02:35:48;;;;;;;14.57;8.00;;;;;;;4.78;84.86;95786.27;1748597;81;21146;-62
2021/04/22 02:38:17;;;;;;;12.13;8.10;;;;;;;4.80;84.62;95785.42;1748524;82;21145;-62
2021/04/22 02:40:48;;;;;;;10.27;6.93;;;;;;;4.81;84.79;95788.46;1748530;82;21161;-62
2021/04/22 02:43:19;;;;;;;11.57;7.53;;;;;;;4.74;85.86;95787.13;1748487;82;21170;-62
2021/04/22 02:45:51;;;;;;;9.70;6.17;;;;;;;4.71;85.81;95784.50;1748339;82;21149;-62
2021/04/22 02:48:20;;;;;;;14.13;9.25;;;;;;;4.68;85.47;95787.06;1748616;82;21132;-62
2021/04/22 02:50:51;;;;;;;14.00;9.20;;;;;;;4.73;85.02;95797.12;1748279;82;21148;-62
2021/04/22 02:53:20;;;;;;;16.27;8.57;;;;;;;4.78;85.09;95788.88;1748237;81;21095;-62
2021/04/22 02:55:48;;;;;;;13.63;9.00;;;;;;;4.81;84.98;95791.94;1748370;82;21575;-62
2021/04/22 02:58:19;;;;;;;12.13;8.63;;;;;;;4.85;84.98;95786.33;1748029;82;21268;-62
2021/04/22 03:00:48;;;;;;;12.67;8.00;;;;;;;4.87;84.68;95783.30;1748249;82;21580;-62
2021/04/22 03:03:16;;;;;;;15.97;10.17;;;;;;;4.89;84.81;95790.69;1748305;82;21169;-62
2021/04/22 03:05:44;;;;;;;18.83;11.67;;;;;;;4.89;84.53;95786.36;1748331;81;21142;-62
2021/04/22 03:08:12;;;;;;;26.83;13.50;;;;;;;4.97;84.67;95786.41;1748199;82;21579;-62
2021/04/22 03:10:41;;;;;;;28.47;14.87;;;;;;;5.02;84.50;95783.38;1748646;82;21137;-62
2021/04/22 03:13:10;;;;;;;24.50;13.77;;;;;;;5.08;84.30;95783.41;1748186;81;21157;-62
2021/04/22 03:15:38;;;;;;;24.40;13.13;;;;;;;5.12;84.20;95781.26;1748177;81;21538;-62
2021/04/22 03:18:08;;;;;;;33.17;16.17;;;;;;;5.18;83.94;95788.26;1748384;81;21169;-62
2021/04/22 03:20:36;;;;;;;34.03;17.03;;;;;;;5.22;83.87;95780.88;1748470;82;21138;-62
2021/04/22 03:23:04;;;;;;;25.60;12.77;;;;;;;5.23;83.51;95787.84;1748244;81;21149;-62
2021/04/22 03:25:33;;;;;;;33.23;18.23;;;;;;;5.24;83.49;95787.00;1748575;81;21145;-62
2021/04/22 03:28:01;;;;;;;34.90;18.70;;;;;;;5.23;83.27;95791.77;1748299;82;21591;-62
2021/04/22 03:30:32;;;;;;;21.37;13.60;;;;;;;5.15;83.31;95781.71;1748211;82;21156;-62
2021/04/22 03:33:00;;;;;;;25.40;13.87;;;;;;;5.06;82.96;95786.44;1748477;82;21548;-62
2021/04/22 03:35:28;;;;;;;24.83;12.73;;;;;;;4.97;83.58;95790.33;1748177;81;21105;-62
2021/04/22 03:37:56;;;;;;;21.40;13.30;;;;;;;4.86;83.41;95799.39;1742134;81;21782;-62
2021/04/22 03:40:26;;;;;;;23.47;12.73;;;;;;;4.85;83.63;95797.65;1740254;82;21295;-62
2021/04/22 03:42:55;;;;;;;17.23;9.63;;;;;;;4.91;83.50;95796.80;1739964;82;21153;-62
2021/04/22 03:45:25;;;;;;;16.77;10.77;;;;;;;4.75;83.09;95795.40;1740012;82;21114;-62
2021/04/22 03:47:53;;;;;;;19.93;11.93;;;;;;;4.61;83.28;95797.46;1740296;82;21154;-62
2021/04/22 03:50:21;;;;;;;15.40;10.10;;;;;;;4.59;83.38;95798.78;1740050;82;21705;-62
2021/04/22 03:52:50;;;;;;;14.00;8.53;;;;;;;4.59;83.18;95802.70;1740164;82;21584;-62
2021/04/22 03:55:19;;;;;;;15.27;10.07;;;;;;;4.48;83.12;95808.25;1739977;82;21232;-62
2021/04/22 03:57:47;;;;;;;15.10;10.43;;;;;;;4.39;83.48;95812.11;1740077;82;21268;-62
2021/04/22 04:00:20;;;;;;;14.40;8.30;;;;;;;4.37;83.84;95813.83;1740252;82;21249;-62
2021/04/22 04:02:47;;;;;;;24.10;13.67;;;;;;;4.27;84.13;95816.78;1740064;82;21299;-62
2021/04/22 04:05:15;;;;;;;14.90;8.30;;;;;;;4.17;84.90;95821.48;1740064;82;21575;-62
2021/04/22 04:07:43;;;;;;;16.90;8.63;;;;;;;4.10;84.72;95821.40;1740463;82;21291;-62
2021/04/22 04:10:11;;;;;;;13.97;8.60;;;;;;;4.07;84.46;95819.20;1740030;82;21126;-62
2021/04/22 04:12:39;;;;;;;45.13;20.60;;;;;;;4.01;84.63;95819.16;1740461;82;21137;-62
2021/04/22 04:15:09;;;;;;;58.47;27.17;;;;;;;3.97;85.09;95826.50;1740435;82;21149;-62
2021/04/22 04:17:38;;;;;;;27.30;15.97;;;;;;;3.99;84.72;95819.56;1740158;82;21114;-62
2021/04/22 04:20:12;;;;;;;45.57;25.00;;;;;;;4.00;84.65;95828.69;1740230;82;21299;-62
2021/04/22 04:22:41;;;;;;;31.90;17.97;;;;;;;3.95;85.63;95832.99;1740042;82;21145;-62
2021/04/22 04:25:10;;;;;;;38.50;20.37;;;;;;;4.00;85.18;95831.30;1739958;82;21730;-62
2021/04/22 04:27:38;;;;;;;41.00;21.77;;;;;;;3.96;86.28;95836.50;1740033;82;21311;-62
2021/04/22 04:30:10;;;;;;;32.10;20.30;;;;;;;4.03;85.55;95836.59;1740079;81;21162;-62
2021/04/22 04:32:39;;;;;;;44.13;25.87;;;;;;;4.10;85.41;95838.38;1740101;82;21125;-62
2021/04/22 04:35:09;;;;;;;35.37;22.00;;;;;;;4.14;85.54;95833.20;1740166;82;21292;-62
2021/04/22 04:37:37;;;;;;;54.07;28.10;;;;;;;4.15;85.87;95841.47;1746874;82;21591;-62
2021/04/22 04:40:08;;;;;;;73.47;34.07;;;;;;;4.19;85.80;95841.52;1754244;82;21156;-62
2021/04/22 04:42:37;;;;;;;68.33;31.30;;;;;;;4.30;85.85;95843.80;1754246;82;21192;-62
2021/04/22 04:45:07;;;;;;;62.63;30.60;;;;;;;4.48;85.77;95843.09;1753850;82;21161;-62
2021/04/22 04:47:36;;;;;;;55.70;29.40;;;;;;;4.69;85.62;95842.41;1754073;82;21556;-62
2021/04/22 04:50:06;;;;;;;90.67;43.60;;;;;;;4.81;85.01;95836.38;1754495;82;21133;-62
2021/04/22 04:52:34;;;;;;;86.20;45.07;;;;;;;4.88;84.78;95838.63;1754177;82;21125;-62
2021/04/22 04:55:04;;;;;;;77.97;40.20;;;;;;;4.97;84.38;95842.19;1754590;82;21137;-62
2021/04/22 04:57:32;;;;;;;63.03;36.13;;;;;;;5.06;83.80;95840.05;1754102;82;21161;-62
2021/04/22 04:59:59;;;;;;;80.27;41.10;;;;;;;5.15;83.45;95845.36;1754084;82;21149;-62
2021/04/22 05:02:27;;;;;;;110.23;48.47;;;;;;;5.15;83.22;95844.48;1754085;82;21588;-62
2021/04/22 05:04:54;;;;;;;53.97;30.90;;;;;;;5.21;83.15;95847.13;1754111;82;21181;-62
2021/04/22 05:07:22;;;;;;;29.20;19.33;;;;;;;5.35;83.26;95836.76;1754015;82;21149;-62
2021/04/22 05:09:49;;;;;;;22.47;15.87;;;;;;;5.48;82.97;95835.95;1754052;82;21138;-62
2021/04/22 05:12:17;;;;;;;29.00;17.87;;;;;;;5.56;82.63;95828.12;1754051;82;21579;-62
2021/04/22 05:14:45;;;;;;;38.50;23.60;;;;;;;5.67;82.57;95823.83;1754044;82;21148;-62
2021/04/22 05:17:13;;;;;;;23.20;16.47;;;;;;;5.76;82.41;95822.98;1753948;82;21144;-62
2021/04/22 05:19:41;;;;;;;25.47;15.47;;;;;;;5.83;82.29;95823.45;1754392;82;21140;-62
2021/04/22 05:22:09;;;;;;;12.50;9.00;;;;;;;5.86;81.82;95818.21;1754279;82;21178;-62
2021/04/22 05:24:36;;;;;;;14.50;9.93;;;;;;;5.92;81.46;95818.66;1754058;82;21148;-62
2021/04/22 05:27:05;;;;;;;13.80;10.67;;;;;;;5.98;81.19;95811.73;1754306;81;21150;-62
2021/04/22 05:29:34;;;;;;;18.60;12.33;;;;;;;6.17;81.12;95815.25;1754228;82;21145;-62
2021/04/22 05:32:06;;;;;;;15.00;10.83;;;;;;;6.35;80.71;95819.69;1754235;82;21152;-62
2021/04/22 05:34:34;;;;;;;18.60;11.77;;;;;;;6.53;80.19;95814.89;1754276;82;21122;-62
2021/04/22 05:37:01;;;;;;;18.47;12.97;;;;;;;6.77;80.46;95811.83;1724479;82;21280;-62
2021/04/22 05:39:30;;;;;;;19.20;12.07;;;;;;;7.00;80.44;95814.42;1740232;82;21249;-62
2021/04/22 05:41:58;;;;;;;17.43;12.67;;;;;;;7.24;79.87;95804.34;1740393;81;21145;-62
2021/04/22 05:44:26;;;;;;;20.63;12.57;;;;;;;7.46;77.51;95799.88;1740721;82;21161;-62
2021/04/22 05:46:54;;;;;;;11.87;7.70;;;;;;;7.65;76.76;95798.95;1740384;82;21153;-62
2021/04/22 05:49:21;;;;;;;18.57;11.40;;;;;;;7.84;75.24;95797.54;1740084;82;21296;-62
2021/04/22 05:51:49;;;;;;;23.70;13.37;;;;;;;7.91;73.73;95800.16;1740643;82;21137;-62
2021/04/22 05:54:16;;;;;;;22.10;14.57;;;;;;;8.08;75.36;95800.05;1740167;82;21299;-62
2021/04/22 05:56:45;;;;;;;15.60;10.77;;;;;;;8.29;75.93;95808.27;1740081;82;21271;-62
2021/04/22 05:59:13;;;;;;;18.33;12.10;;;;;;;8.55;71.93;95803.30;1740271;81;21603;-62
2021/04/22 06:01:41;;;;;;;15.33;10.27;;;;;;;8.93;70.04;95801.67;1740161;82;21197;-62
2021/04/22 06:04:10;;;;;;;14.13;8.33;;;;;;;9.34;65.49;95797.76;1740335;82;21141;-62
2021/04/22 06:06:37;;;;;;;14.60;9.67;;;;;;;9.62;64.61;95798.77;1740193;82;21276;-62
2021/04/22 06:09:06;;;;;;;17.53;11.70;;;;;;;9.88;63.95;95802.43;1740101;82;21134;-62
2021/04/22 06:11:34;;;;;;;14.40;9.13;;;;;;;10.06;61.92;95798.68;1740149;82;21162;-62
2021/04/22 06:14:03;;;;;;;12.60;9.70;;;;;;;10.18;63.48;95798.52;1740158;82;21275;-62
2021/04/22 06:16:31;;;;;;;14.77;9.53;;;;;;;10.34;61.20;95807.98;1740231;82;21116;-62
2021/04/22 06:18:58;;;;;;;15.27;8.70;;;;;;;10.48;58.67;95814.39;1740192;81;21193;-62
2021/04/22 06:21:26;;;;;;;12.97;9.53;;;;;;;10.61;59.01;95805.84;1740430;82;21592;-62
2021/04/22 06:23:54;;;;;;;10.53;6.87;;;;;;;10.73;59.43;95793.74;1740072;82;21547;-62
2021/04/22 06:26:23;;;;;;;12.77;10.10;;;;;;;10.87;57.48;95804.55;1740204;82;21288;-62
2021/04/22 06:28:51;;;;;;;11.43;9.23;;;;;;;10.97;57.38;95798.22;1740182;81;21145;-62
2021/04/22 06:31:18;;;;;;;14.13;10.27;;;;;;;11.03;55.60;95797.64;1739872;82;21703;-62
2021/04/22 06:33:46;;;;;;;11.20;7.60;;;;;;;11.13;55.51;95789.12;1740507;82;21157;-62
2021/04/22 06:36:15;;;;;;;8.63;5.40;;;;;;;11.21;54.13;95795.58;1740125;82;21280;-62
2021/04/22 06:38:43;;;;;;;9.43;7.03;;;;;;;11.31;52.90;95804.22;1750359;81;21318;-62
2021/04/22 06:41:12;;;;;;;49.37;30.30;;;;;;;11.37;53.08;95782.99;1754197;82;21185;-62
2021/04/22 06:43:40;;;;;;;12.70;9.40;;;;;;;11.56;54.27;95793.61;1754241;81;21172;-62
2021/04/22 06:46:09;;;;;;;13.10;9.37;;;;;;;11.72;53.06;95790.66;1753972;82;21157;-62
2021/04/22 06:48:38;;;;;;;11.53;8.33;;;;;;;11.89;53.16;95788.59;1754262;82;21145;-62
2021/04/22 06:51:08;;;;;;;9.27;7.63;;;;;;;12.00;51.01;95780.45;1754263;82;21176;-62
2021/04/22 06:53:36;;;;;;;12.13;8.17;;;;;;;12.03;51.89;95791.82;1754214;82;21149;-62
2021/04/22 06:56:05;;;;;;;11.47;8.10;;;;;;;12.01;51.47;95786.15;1754138;82;21145;-62
2021/04/22 06:58:33;;;;;;;8.33;6.53;;;;;;;11.96;50.75;95786.23;1754253;82;21137;-62
2021/04/22 07:01:02;;;;;;;9.80;6.93;;;;;;;11.90;51.23;95776.67;1754102;81;21603;-62
2021/04/22 07:03:30;;;;;;;7.73;6.03;;;;;;;12.04;51.57;95781.65;1754290;81;21188;-62
2021/04/22 07:05:58;;;;;;;10.27;7.43;;;;;;;12.27;50.60;95783.83;1754133;82;21555;-62
2021/04/22 07:08:25;;;;;;;7.63;5.17;;;;;;;12.38;50.83;95791.97;1754100;82;21133;-62
2021/04/22 07:10:53;;;;;;;5.60;4.00;;;;;;;12.41;49.04;95791.90;1754140;82;21137;-62
2021/04/22 07:13:21;;;;;;;8.00;5.80;;;;;;;12.37;48.37;95801.66;1754062;82;21137;-62
2021/04/22 07:15:49;;;;;;;8.10;5.97;;;;;;;12.33;47.89;95796.91;1754150;82;21149;-63
2021/04/22 07:18:17;;;;;;;9.00;6.30;;;;;;;12.32;48.00;95810.16;1754091;82;21145;-62
2021/04/22 07:20:44;;;;;;;11.37;6.50;;;;;;;12.32;49.22;95800.47;1754090;82;21579;-62
2021/04/22 07:23:13;;;;;;;8.33;6.33;;;;;;;12.32;49.13;95801.79;1754169;82;21591;-62
2021/04/22 07:25:41;;;;;;;5.23;4.00;;;;;;;12.40;48.75;95803.37;1754106;82;21623;-62
2021/04/22 07:28:12;;;;;;;8.30;5.10;;;;;;;12.50;47.21;95793.89;1754201;82;21133;-62
2021/04/22 07:30:42;;;;;;;8.17;6.73;;;;;;;12.61;47.31;95792.77;1754124;82;21134;-62
2021/04/22 07:33:10;;;;;;;7.07;5.27;;;;;;;12.67;47.87;95808.49;1754038;81;21595;-62
2021/04/22 07:35:38;;;;;;;5.70;4.80;;;;;;;12.70;47.28;95807.98;1754150;82;21157;-62
2021/04/22 07:38:10;;;;;;;4.73;4.00;;;;;;;12.70;45.28;95803.12;1754202;81;21168;-62
2021/04/22 07:40:39;;;;;;;4.60;4.00;;;;;;;12.67;46.09;95813.33;1754026;82;21555;-62
2021/04/22 07:43:09;;;;;;;8.17;7.37;;;;;;;12.65;45.57;95815.16;1754264;82;21157;-62
2021/04/22 07:45:40;;;;;;;5.70;4.60;;;;;;;12.62;46.51;95813.02;1754116;82;21152;-62
2021/04/22 07:48:10;;;;;;;9.57;6.70;;;;;;;12.67;46.77;95811.14;1753923;81;21129;-62
2021/04/22 07:50:40;;;;;;;7.40;5.53;;;;;;;12.66;45.60;95812.06;1754116;81;21117;-62
2021/04/22 07:53:08;;;;;;;7.67;6.87;;;;;;;12.71;46.13;95815.47;1754196;82;21149;-62
2021/04/22 07:55:41;;;;;;;10.70;9.50;;;;;;;12.71;44.75;95814.14;1754221;82;21157;-62
2021/04/22 07:58:09;;;;;;;7.60;5.85;;;;;;;12.76;45.37;95811.80;1754291;81;21142;-62
2021/04/22 08:00:38;;;;;;;7.07;5.33;;;;;;;12.80;45.86;95809.07;1754212;81;21622;-62
2021/04/22 08:03:05;;;;;;;6.37;4.87;;;;;;;12.90;47.83;95811.48;1754005;82;21598;-62
2021/04/22 08:05:37;;;;;;;7.57;3.37;;;;;;;12.94;44.58;95810.48;1754072;81;21129;-63
2021/04/22 08:08:09;;;;;;;4.85;4.35;;;;;;;12.94;44.73;95809.16;1754136;82;21142;-62
2021/04/22 08:10:45;;;;;;;5.70;3.40;;;;;;;13.21;44.05;95802.31;1754162;82;21156;-62
2021/04/22 08:13:16;;;;;;;3.60;3.30;;;;;;;13.57;42.61;95802.28;1754496;82;21113;-62
2021/04/22 08:15:47;;;;;;;4.20;2.70;;;;;;;13.94;41.53;95803.06;1753953;82;21133;-62
2021/04/22 08:18:16;;;;;;;6.20;3.70;;;;;;;14.00;40.83;95801.55;1754020;82;21121;-62
2021/04/22 08:20:44;;;;;;;3.77;3.37;;;;;;;14.14;40.37;95809.13;1754375;82;21575;-62
2021/04/22 08:23:13;;;;;;;4.33;3.40;;;;;;;14.31;40.38;95804.16;1753946;82;21122;-62
2021/04/22 08:25:46;;;;;;;4.07;3.23;;;;;;;14.37;39.43;95800.48;1753891;82;21078;-62
2021/04/22 08:28:16;;;;;;;4.17;2.90;;;;;;;14.56;39.10;95797.69;1754084;82;21094;-62
2021/04/22 08:30:49;;;;;;;6.20;3.83;;;;;;;14.70;39.82;95810.55;1753972;81;21154;-62
2021/04/22 08:33:19;;;;;;;3.55;3.12;;;;;;;15.01;41.31;95808.23;1751813;82;21173;-62
2021/04/22 08:35:47;;;;;;;6.10;2.62;;;;;;;15.18;38.82;95792.61;1754258;82;21200;-63
2021/04/22 08:38:15;;;;;;;4.67;3.15;;;;;;;15.25;37.87;95802.12;1753990;81;21164;-62
2021/04/22 08:40:44;;;;;;;15.60;10.35;;;;;;;15.35;38.38;95799.55;1754287;82;21149;-62
2021/04/22 08:43:12;;;;;;;7.08;4.97;;;;;;;15.55;39.61;95807.32;1754161;82;21146;-62
2021/04/22 08:45:41;;;;;;;10.18;9.18;;;;;;;15.37;37.32;95803.47;1754769;82;21299;-62
2021/04/22 08:48:11;;;;;;;4.20;3.80;;;;;;;15.17;39.15;95794.88;1754067;82;21137;-62
2021/04/22 08:50:42;;;;;;;3.30;2.92;;;;;;;15.05;38.71;95804.11;1754399;82;21271;-62
2021/04/22 08:53:15;;;;;;;5.78;2.60;;;;;;;14.89;38.52;95813.05;1754253;82;21150;-62
2021/04/22 08:55:44;;;;;;;;;;;;;;;14.46;38.42;95807.71;1756684;82;21125;-62
2021/04/22 08:58:13;;;;;;;5.45;3.52;;;;;;;14.45;39.03;95826.33;1754411;82;20157;-62
2021/04/22 09:00:52;;;;;;;3.90;3.00;;;;;;;14.28;38.56;95818.86;1754174;82;21165;-62
2021/04/22 09:03:20;;;;;;;4.45;3.75;;;;;;;14.20;39.61;95825.72;1753258;82;21165;-62
2021/04/22 09:05:50;;;;;;;3.45;3.08;;;;;;;14.15;40.44;95816.16;1754176;82;21161;-62
2021/04/22 09:08:20;;;;;;;3.50;2.90;;;;;;;14.11;40.76;95818.48;1754286;82;21572;-62
2021/04/22 09:10:47;;;;;;;4.50;4.07;;;;;;;14.23;40.19;95822.11;1754257;82;21137;-62
2021/04/22 09:13:18;;;;;;;6.27;4.20;;;;;;;14.39;42.75;95818.09;1754338;82;21128;-62
2021/04/22 09:15:48;;;;;;;5.60;4.47;;;;;;;14.54;41.96;95811.49;1754443;82;21129;-62
2021/04/22 09:18:18;;;;;;;4.92;4.10;;;;;;;14.57;41.80;95807.88;1752497;82;21610;-62
2021/04/22 09:20:51;;;;;;;6.17;3.90;;;;;;;14.48;40.65;95808.50;1754396;81;21133;-62
2021/04/22 09:23:27;;;;;;;5.83;3.90;;;;;;;14.52;40.63;95812.42;1754389;82;21579;-62
2021/04/22 09:26:04;;;;;;;3.57;3.27;;;;;;;14.68;41.64;95810.58;1754161;82;21133;-62
2021/04/22 09:28:41;;;;;;;4.40;3.15;;;;;;;14.82;41.38;95806.65;1754426;82;21137;-62
2021/04/22 09:31:11;;;;;;;4.55;4.10;;;;;;;14.74;39.89;95808.22;1754318;82;21551;-62
2021/04/22 09:33:40;;;;;;;3.00;2.60;;;;;;;14.81;40.41;95815.52;1754034;82;21133;-62
2021/04/22 09:36:15;;;;;;;5.87;5.28;;;;;;;14.72;38.73;95815.36;1754380;82;21160;-62
2021/04/22 09:38:53;;;;;;;2.50;2.10;;;;;;;14.85;40.20;95818.50;1754318;81;21168;-62
2021/04/22 09:41:26;;;;;;;3.17;2.87;;;;;;;14.94;39.25;95842.09;1754490;82;21125;-62
2021/04/22 09:44:10;;;;;;;3.85;2.60;;;;;;;14.70;40.32;95825.16;1754466;82;21149;-62
2021/04/22 09:46:43;;;;;;;2.67;2.47;;;;;;;14.43;40.36;95846.73;1754020;82;21124;-62
2021/04/22 09:49:15;;;;;;;2.37;2.02;;;;;;;14.05;41.18;95842.08;1754270;82;21122;-62
2021/04/22 09:51:45;;;;;;;5.50;3.40;;;;;;;13.78;42.17;95831.77;1753150;82;21632;-62
2021/04/22 09:54:17;;;;;;;1.40;1.30;;;;;;;13.71;43.95;95839.47;1754342;82;21141;-62
2021/04/22 09:56:55;;;;;;;2.00;1.80;;;;;;;13.48;42.75;95840.09;1754195;82;21125;-62
2021/04/22 09:59:27;;;;;;;2.90;2.60;;;;;;;13.27;44.27;95831.78;1754197;82;21529;-62
2021/04/22 10:02:07;;;;;;;4.07;2.83;;;;;;;13.11;44.69;95837.89;1754373;81;21123;-63
2021/04/22 10:04:39;;;;;;;6.60;3.90;;;;;;;12.88;45.33;95833.16;1754190;82;21532;-62
2021/04/22 10:07:28;;;;;;;2.77;2.10;;;;;;;12.63;47.35;95820.94;1753748;82;21152;-62
2021/04/22 10:10:04;;;;;;;2.33;2.13;;;;;;;12.59;47.85;95826.34;1754388;81;21144;-62
2021/04/22 10:12:35;;;;;;;4.07;2.40;;;;;;;12.50;46.85;95825.64;1752970;82;21587;-62
2021/04/22 10:15:17;;;;;;;1.70;1.53;;;;;;;12.59;47.48;95830.30;1754132;82;21114;-62
2021/04/22 10:18:02;;;;;;;1.98;1.72;;;;;;;12.62;47.94;95823.61;1754232;82;21521;-62
2021/04/22 10:20:35;;;;;;;3.10;2.40;;;;;;;12.68;48.69;95820.84;1754278;82;21547;-63
2021/04/22 10:23:07;;;;;;;4.53;2.58;;;;;;;12.84;49.89;95819.56;1754150;82;21168;-63
2021/04/22 10:25:43;;;;;;;2.63;2.10;;;;;;;13.11;51.21;95798.62;1754220;82;21548;-63
2021/04/22 10:28:15;;;;;;;4.43;2.70;;;;;;;13.49;49.74;95800.77;1754434;82;21264;-63
2021/04/22 10:30:48;;;;;;;4.83;3.30;;;;;;;13.80;48.60;95796.80;1754367;81;21117;-63
2021/04/22 10:33:16;;;;;;;4.47;4.03;;;;;;;14.09;48.77;95792.01;1754327;82;21540;-63
2021/04/22 10:35:46;;;;;;;2.90;2.60;;;;;;;14.61;46.33;95790.44;1754227;81;21572;-63
2021/04/22 10:38:15;;;;;;;4.55;2.87;;;;;;;15.01;46.69;95781.20;1754457;81;21267;-63
2021/04/22 10:40:48;;;;;;;3.12;2.77;;;;;;;15.42;45.62;95773.64;1726901;82;21117;-63
2021/04/22 10:43:26;;;;;;;4.55;4.15;;;;;;;15.75;47.14;95768.08;1754393;81;21622;-63
2021/04/22 10:45:56;;;;;;;5.75;3.60;;;;;;;16.17;46.15;95771.39;1754156;82;21126;-63
2021/04/22 10:48:24;;;;;;;4.40;4.00;;;;;;;16.35;42.64;95765.36;1754164;82;21560;-63
2021/04/22 10:50:54;;;;;;;4.25;3.80;;;;;;;16.71;44.53;95751.55;1754045;82;21536;-63
2021/04/22 10:53:24;;;;;;;4.83;3.98;;;;;;;17.14;41.84;95747.15;1754154;82;21133;-63
2021/04/22 10:55:55;;;;;;;5.20;3.80;;;;;;;16.70;36.99;95747.13;1754163;81;21145;-63
2021/04/22 10:58:27;;;;;;;3.98;3.60;;;;;;;16.58;38.00;95758.27;1754260;82;21098;-63
2021/04/22 11:01:03;;;;;;;3.75;3.35;;;;;;;16.55;37.14;95759.25;1754185;82;21082;-63
2021/04/22 11:03:38;;;;;;;4.97;3.40;;;;;;;16.31;37.68;95761.09;1754250;81;21283;-63
2021/04/22 11:06:14;;;;;;;3.22;2.85;;;;;;;15.75;37.45;95757.44;1754329;82;21133;-63
2021/04/22 11:08:51;;;;;;;2.58;2.15;;;;;;;15.56;38.66;95744.75;1753654;82;21184;-63
2021/04/22 11:11:31;;;;;;;3.40;3.10;;;;;;;15.55;38.67;95744.35;1754049;82;21086;-63
2021/04/22 11:14:14;;;;;;;4.17;3.50;;;;;;;15.92;38.61;95743.02;1754216;82;21548;-63
2021/04/22 11:16:50;;;;;;;3.27;2.98;;;;;;;16.47;41.14;95737.39;1754580;82;21528;-63
2021/04/22 11:19:22;;;;;;;3.33;2.90;;;;;;;16.80;37.76;95747.66;1754309;82;21117;-63
2021/04/22 11:22:04;;;;;;;4.05;3.55;;;;;;;16.79;36.31;95731.28;1754353;82;21137;-63
2021/04/22 11:24:36;;;;;;;2.58;2.37;;;;;;;16.65;38.60;95726.46;1739944;82;21165;-63
2021/04/22 11:27:09;;;;;;;3.08;2.77;;;;;;;16.31;37.55;95738.94;1753762;82;21635;-64
2021/04/22 11:29:44;;;;;;;4.40;3.08;;;;;;;15.68;38.22;95732.80;1754477;82;21122;-63
2021/04/22 11:32:34;;;;;;;2.42;2.22;;;;;;;15.44;39.05;95729.69;1754063;82;21133;-63
2021/04/22 11:35:15;;;;;;;3.27;2.30;;;;;;;15.15;38.55;95732.91;1754108;82;21113;-63
2021/04/22 11:37:48;;;;;;;2.92;2.62;;;;;;;14.90;39.00;95728.42;1754280;81;21142;-64
2021/04/22 11:40:23;;;;;;;3.05;2.75;;;;;;;14.62;39.73;95722.30;1754091;81;21160;-63
2021/04/22 11:42:55;;;;;;;2.95;2.70;;;;;;;14.39;41.26;95723.86;1754096;81;21137;-63
2021/04/22 11:45:26;;;;;;;3.70;3.40;;;;;;;14.31;42.03;95730.31;1754188;82;21150;-64